Airfield :
LOGIN :

Register | Disclaimer

   EN    FR    IT 

 










Legend :    VFR   Marginal VFR   IFR   Intensive IFR   Very Intensive IFR
Visi :
Ceiling :
>= 8 km
>= 3000ft
5 to 8 km
1000 to 3000 ft
1500m to 5 km
500 to 1000 ft
800 to 1500m
200 to 500 ft
< 800m
< 200 ft
Symbols :   Thunderstorms  Fog  Heavy snow  Heavy precipitations  Wind > 20 kt
SIGMETs :     Misc.  Thunderstorms  Icing  Turbulence  Mountain Waves  Volcanic Ashes






- Airport Elevation : 11 ft
- IATA code : SXL


EISG - Sligo

CURRENT METAR :
  • 282030Z 28012KT 9999 FEW028 BKN033 BKN043 09/06 Q1014

EXPIRED METARs :
  • 282000Z 30014KT 9999 FEW023 SCT029 BKN045 09/06 Q1014
  • 281930Z 30012KT 9999 SCT023 SCT030 OVC039 09/06 Q1014
  • 281900Z 31013KT 9999 FEW017 BKN030 OVC045 09/07 Q1013
  • 281830Z 28010KT 9999 FEW019 BKN031 OVC045 09/07 Q1013

TAF TAF EISG
Valid from the 28 at 21:00 until the 29 at 06:00 UTC


282000Z 2821/2906 30009KT 9999 FEW020



MET'MAP, your aeronautical weather chart ! - Copyright ORBIFLY December 2007 - Disclaimer

ORBIFLY MET'MAP TEAM :

Programming & Development : Alexandra Zaïnal
Original concept : Baudouin d'Aumeries
Technical & hardware support : Manuel Goepfert
Assistance : Marc-Olivier Méhu




SOURCES & CREDITS :

   NOAA